sensor_id;sensor_type;location;lat;lon;timestamp;temperature;humidity
31443;SHT31;18065;55.876;9.830;2023-10-19T00:01:54;23.13;53.95
31443;SHT31;18065;55.876;9.830;2023-10-19T00:04:20;23.13;53.87
31443;SHT31;18065;55.876;9.830;2023-10-19T00:06:52;23.16;53.91
31443;SHT31;18065;55.876;9.830;2023-10-19T00:09:21;23.14;53.87
31443;SHT31;18065;55.876;9.830;2023-10-19T00:11:48;23.14;53.89
31443;SHT31;18065;55.876;9.830;2023-10-19T00:14:17;23.10;53.88
31443;SHT31;18065;55.876;9.830;2023-10-19T00:16:44;23.16;53.86
31443;SHT31;18065;55.876;9.830;2023-10-19T00:19:16;23.13;53.77
31443;SHT31;18065;55.876;9.830;2023-10-19T00:21:45;23.12;53.79
31443;SHT31;18065;55.876;9.830;2023-10-19T00:24:23;23.12;53.84
31443;SHT31;18065;55.876;9.830;2023-10-19T00:26:49;23.12;53.86
31443;SHT31;18065;55.876;9.830;2023-10-19T00:29:20;23.12;53.88
31443;SHT31;18065;55.876;9.830;2023-10-19T00:32:05;23.13;53.89
31443;SHT31;18065;55.876;9.830;2023-10-19T00:34:39;23.12;53.92
31443;SHT31;18065;55.876;9.830;2023-10-19T00:37:11;23.10;53.91
31443;SHT31;18065;55.876;9.830;2023-10-19T00:39:47;23.03;54.01
31443;SHT31;18065;55.876;9.830;2023-10-19T00:42:19;23.00;53.95
31443;SHT31;18065;55.876;9.830;2023-10-19T00:44:51;23.06;54.02
31443;SHT31;18065;55.876;9.830;2023-10-19T00:47:27;23.04;53.96
31443;SHT31;18065;55.876;9.830;2023-10-19T00:50:04;23.03;53.94
31443;SHT31;18065;55.876;9.830;2023-10-19T00:52:37;23.04;53.94
31443;SHT31;18065;55.876;9.830;2023-10-19T00:55:13;23.04;53.93
31443;SHT31;18065;55.876;9.830;2023-10-19T00:57:44;23.03;53.89
31443;SHT31;18065;55.876;9.830;2023-10-19T01:00:15;23.04;53.83
31443;SHT31;18065;55.876;9.830;2023-10-19T01:02:57;23.06;53.90
31443;SHT31;18065;55.876;9.830;2023-10-19T01:05:30;23.06;53.85
31443;SHT31;18065;55.876;9.830;2023-10-19T01:08:01;23.04;53.80
31443;SHT31;18065;55.876;9.830;2023-10-19T01:10:42;23.03;53.78
31443;SHT31;18065;55.876;9.830;2023-10-19T01:13:12;23.04;53.85
31443;SHT31;18065;55.876;9.830;2023-10-19T01:15:42;23.03;53.85
31443;SHT31;18065;55.876;9.830;2023-10-19T01:18:14;23.02;53.73
31443;SHT31;18065;55.876;9.830;2023-10-19T01:20:43;23.03;53.70
31443;SHT31;18065;55.876;9.830;2023-10-19T01:23:19;23.04;53.71
31443;SHT31;18065;55.876;9.830;2023-10-19T01:25:55;23.04;53.86
31443;SHT31;18065;55.876;9.830;2023-10-19T01:28:37;23.02;53.73
31443;SHT31;18065;55.876;9.830;2023-10-19T01:31:08;23.03;53.61
31443;SHT31;18065;55.876;9.830;2023-10-19T01:33:40;23.03;53.76
31443;SHT31;18065;55.876;9.830;2023-10-19T01:36:10;23.03;53.89
31443;SHT31;18065;55.876;9.830;2023-10-19T01:38:42;23.03;53.76
31443;SHT31;18065;55.876;9.830;2023-10-19T01:41:09;23.03;53.71
31443;SHT31;18065;55.876;9.830;2023-10-19T01:43:45;23.02;53.70
31443;SHT31;18065;55.876;9.830;2023-10-19T01:46:13;23.03;53.65
31443;SHT31;18065;55.876;9.830;2023-10-19T01:48:48;23.02;53.72
31443;SHT31;18065;55.876;9.830;2023-10-19T01:51:15;23.00;53.80
31443;SHT31;18065;55.876;9.830;2023-10-19T01:53:47;22.99;53.74
31443;SHT31;18065;55.876;9.830;2023-10-19T01:56:14;23.02;53.74
31443;SHT31;18065;55.876;9.830;2023-10-19T01:58:46;22.99;53.74
31443;SHT31;18065;55.876;9.830;2023-10-19T02:01:13;23.02;53.70
31443;SHT31;18065;55.876;9.830;2023-10-19T02:03:54;23.00;53.67
31443;SHT31;18065;55.876;9.830;2023-10-19T02:06:25;22.99;53.75
31443;SHT31;18065;55.876;9.830;2023-10-19T02:09:05;22.99;53.49
31443;SHT31;18065;55.876;9.830;2023-10-19T02:11:35;22.99;53.71
31443;SHT31;18065;55.876;9.830;2023-10-19T02:14:08;22.99;53.70
31443;SHT31;18065;55.876;9.830;2023-10-19T02:16:39;22.97;53.75
31443;SHT31;18065;55.876;9.830;2023-10-19T02:19:09;23.00;53.84
31443;SHT31;18065;55.876;9.830;2023-10-19T02:21:35;22.99;53.97
31443;SHT31;18065;55.876;9.830;2023-10-19T02:24:09;23.00;53.84
31443;SHT31;18065;55.876;9.830;2023-10-19T02:26:35;22.99;53.91
31443;SHT31;18065;55.876;9.830;2023-10-19T02:29:06;23.03;53.85
31443;SHT31;18065;55.876;9.830;2023-10-19T02:31:33;22.99;53.67
31443;SHT31;18065;55.876;9.830;2023-10-19T02:34:03;23.00;53.61
31443;SHT31;18065;55.876;9.830;2023-10-19T02:36:31;23.02;53.79
31443;SHT31;18065;55.876;9.830;2023-10-19T02:39:03;23.00;53.95
31443;SHT31;18065;55.876;9.830;2023-10-19T02:41:37;22.99;53.78
31443;SHT31;18065;55.876;9.830;2023-10-19T02:44:09;23.03;53.78
31443;SHT31;18065;55.876;9.830;2023-10-19T02:46:40;22.97;53.84
31443;SHT31;18065;55.876;9.830;2023-10-19T02:49:10;23.02;53.93
31443;SHT31;18065;55.876;9.830;2023-10-19T02:51:37;23.00;53.84
31443;SHT31;18065;55.876;9.830;2023-10-19T02:54:08;22.97;53.81
31443;SHT31;18065;55.876;9.830;2023-10-19T02:56:44;22.99;53.73
31443;SHT31;18065;55.876;9.830;2023-10-19T02:59:15;22.97;53.75
31443;SHT31;18065;55.876;9.830;2023-10-19T03:01:41;22.97;53.59
31443;SHT31;18065;55.876;9.830;2023-10-19T03:04:11;22.96;53.74
31443;SHT31;18065;55.876;9.830;2023-10-19T03:06:38;22.97;53.77
31443;SHT31;18065;55.876;9.830;2023-10-19T03:09:08;22.97;53.66
31443;SHT31;18065;55.876;9.830;2023-10-19T03:11:38;22.97;53.54
31443;SHT31;18065;55.876;9.830;2023-10-19T03:14:11;22.96;53.58
31443;SHT31;18065;55.876;9.830;2023-10-19T03:16:38;22.96;53.74
31443;SHT31;18065;55.876;9.830;2023-10-19T03:19:08;22.95;53.79
31443;SHT31;18065;55.876;9.830;2023-10-19T03:21:34;22.95;53.70
31443;SHT31;18065;55.876;9.830;2023-10-19T03:24:08;22.95;53.52
31443;SHT31;18065;55.876;9.830;2023-10-19T03:26:48;22.96;53.89
31443;SHT31;18065;55.876;9.830;2023-10-19T03:29:20;22.93;53.82
31443;SHT31;18065;55.876;9.830;2023-10-19T03:31:51;22.95;54.01
31443;SHT31;18065;55.876;9.830;2023-10-19T03:34:20;22.93;53.88
31443;SHT31;18065;55.876;9.830;2023-10-19T03:36:49;22.96;53.80
31443;SHT31;18065;55.876;9.830;2023-10-19T03:39:20;22.92;53.99
31443;SHT31;18065;55.876;9.830;2023-10-19T03:41:49;22.92;54.00
31443;SHT31;18065;55.876;9.830;2023-10-19T03:44:20;22.93;53.77
31443;SHT31;18065;55.876;9.830;2023-10-19T03:46:52;22.90;53.77
31443;SHT31;18065;55.876;9.830;2023-10-19T03:49:29;22.92;54.09
31443;SHT31;18065;55.876;9.830;2023-10-19T03:52:01;22.92;53.97
31443;SHT31;18065;55.876;9.830;2023-10-19T03:54:46;22.92;54.09
31443;SHT31;18065;55.876;9.830;2023-10-19T03:57:16;22.92;54.06
31443;SHT31;18065;55.876;9.830;2023-10-19T03:59:48;22.90;54.05
31443;SHT31;18065;55.876;9.830;2023-10-19T04:02:19;22.90;54.01
31443;SHT31;18065;55.876;9.830;2023-10-19T04:04:49;22.89;53.68
31443;SHT31;18065;55.876;9.830;2023-10-19T04:07:18;22.87;53.76
31443;SHT31;18065;55.876;9.830;2023-10-19T04:09:52;22.87;53.82
31443;SHT31;18065;55.876;9.830;2023-10-19T04:12:36;22.86;54.23
31443;SHT31;18065;55.876;9.830;2023-10-19T04:15:11;22.89;54.15
31443;SHT31;18065;55.876;9.830;2023-10-19T04:17:41;22.89;54.04
31443;SHT31;18065;55.876;9.830;2023-10-19T04:20:11;22.86;54.28
31443;SHT31;18065;55.876;9.830;2023-10-19T04:22:54;22.86;54.19
31443;SHT31;18065;55.876;9.830;2023-10-19T04:25:23;22.85;54.20
31443;SHT31;18065;55.876;9.830;2023-10-19T04:27:54;22.85;54.33
31443;SHT31;18065;55.876;9.830;2023-10-19T04:30:28;22.85;54.01
31443;SHT31;18065;55.876;9.830;2023-10-19T04:32:58;22.85;54.15
31443;SHT31;18065;55.876;9.830;2023-10-19T04:35:27;22.87;53.88
31443;SHT31;18065;55.876;9.830;2023-10-19T04:37:59;22.85;54.09
31443;SHT31;18065;55.876;9.830;2023-10-19T04:40:28;22.85;53.92
31443;SHT31;18065;55.876;9.830;2023-10-19T04:42:57;22.86;53.97
31443;SHT31;18065;55.876;9.830;2023-10-19T04:45:28;22.83;54.33
31443;SHT31;18065;55.876;9.830;2023-10-19T04:47:58;22.86;54.17
31443;SHT31;18065;55.876;9.830;2023-10-19T04:50:28;22.85;54.27
31443;SHT31;18065;55.876;9.830;2023-10-19T04:52:57;22.83;53.99
31443;SHT31;18065;55.876;9.830;2023-10-19T04:55:25;22.82;54.01
31443;SHT31;18065;55.876;9.830;2023-10-19T04:57:55;22.86;54.15
31443;SHT31;18065;55.876;9.830;2023-10-19T05:00:25;22.83;54.01
31443;SHT31;18065;55.876;9.830;2023-10-19T05:02:56;22.83;54.19
31443;SHT31;18065;55.876;9.830;2023-10-19T05:05:24;22.83;54.10
31443;SHT31;18065;55.876;9.830;2023-10-19T05:07:53;22.83;54.09
31443;SHT31;18065;55.876;9.830;2023-10-19T05:10:23;22.82;53.97
31443;SHT31;18065;55.876;9.830;2023-10-19T05:12:52;22.80;54.07
31443;SHT31;18065;55.876;9.830;2023-10-19T05:15:21;22.82;54.15
31443;SHT31;18065;55.876;9.830;2023-10-19T05:17:49;22.82;53.84
31443;SHT31;18065;55.876;9.830;2023-10-19T05:20:21;22.80;53.92
31443;SHT31;18065;55.876;9.830;2023-10-19T05:22:51;22.82;54.20
31443;SHT31;18065;55.876;9.830;2023-10-19T05:25:20;22.80;54.10
31443;SHT31;18065;55.876;9.830;2023-10-19T05:27:49;22.77;54.08
31443;SHT31;18065;55.876;9.830;2023-10-19T05:30:18;22.77;53.84
31443;SHT31;18065;55.876;9.830;2023-10-19T05:32:48;22.80;54.10
31443;SHT31;18065;55.876;9.830;2023-10-19T05:35:16;22.80;54.17
31443;SHT31;18065;55.876;9.830;2023-10-19T05:37:51;22.82;54.02
31443;SHT31;18065;55.876;9.830;2023-10-19T05:40:21;22.77;53.98
31443;SHT31;18065;55.876;9.830;2023-10-19T05:42:54;22.73;53.87
31443;SHT31;18065;55.876;9.830;2023-10-19T05:45:23;22.79;53.61
31443;SHT31;18065;55.876;9.830;2023-10-19T05:47:53;22.75;53.81
31443;SHT31;18065;55.876;9.830;2023-10-19T05:50:22;22.80;54.05
31443;SHT31;18065;55.876;9.830;2023-10-19T05:52:53;22.82;53.88
31443;SHT31;18065;55.876;9.830;2023-10-19T05:55:22;22.79;54.00
31443;SHT31;18065;55.876;9.830;2023-10-19T05:57:51;22.80;54.18
31443;SHT31;18065;55.876;9.830;2023-10-19T06:00:20;22.80;53.99
31443;SHT31;18065;55.876;9.830;2023-10-19T06:02:51;22.80;53.94
31443;SHT31;18065;55.876;9.830;2023-10-19T06:05:20;22.82;54.13
31443;SHT31;18065;55.876;9.830;2023-10-19T06:07:50;22.82;54.28
31443;SHT31;18065;55.876;9.830;2023-10-19T06:10:21;22.82;54.05
31443;SHT31;18065;55.876;9.830;2023-10-19T06:12:51;22.85;54.02
31443;SHT31;18065;55.876;9.830;2023-10-19T06:15:21;22.85;53.90
31443;SHT31;18065;55.876;9.830;2023-10-19T06:17:50;22.83;53.91
31443;SHT31;18065;55.876;9.830;2023-10-19T06:20:19;22.79;53.82
31443;SHT31;18065;55.876;9.830;2023-10-19T06:22:55;22.85;53.86
31443;SHT31;18065;55.876;9.830;2023-10-19T06:25:33;22.80;53.85
31443;SHT31;18065;55.876;9.830;2023-10-19T06:28:03;22.82;53.54
31443;SHT31;18065;55.876;9.830;2023-10-19T06:30:33;22.80;53.44
31443;SHT31;18065;55.876;9.830;2023-10-19T06:33:01;22.82;53.90
31443;SHT31;18065;55.876;9.830;2023-10-19T06:35:31;22.80;53.78
31443;SHT31;18065;55.876;9.830;2023-10-19T06:38:01;22.79;53.88
31443;SHT31;18065;55.876;9.830;2023-10-19T06:40:34;22.80;53.77
31443;SHT31;18065;55.876;9.830;2023-10-19T06:43:03;22.79;53.55
31443;SHT31;18065;55.876;9.830;2023-10-19T06:45:32;22.77;53.67
31443;SHT31;18065;55.876;9.830;2023-10-19T06:48:00;22.77;53.53
31443;SHT31;18065;55.876;9.830;2023-10-19T06:50:29;22.76;53.52
31443;SHT31;18065;55.876;9.830;2023-10-19T06:52:58;22.77;53.34
31443;SHT31;18065;55.876;9.830;2023-10-19T06:55:33;22.80;53.90
31443;SHT31;18065;55.876;9.830;2023-10-19T06:58:02;22.82;53.67
31443;SHT31;18065;55.876;9.830;2023-10-19T07:00:30;22.82;53.76
31443;SHT31;18065;55.876;9.830;2023-10-19T07:03:00;22.80;54.00
31443;SHT31;18065;55.876;9.830;2023-10-19T07:05:29;22.82;53.34
31443;SHT31;18065;55.876;9.830;2023-10-19T07:07:58;22.79;53.87
31443;SHT31;18065;55.876;9.830;2023-10-19T07:10:28;22.82;54.29
31443;SHT31;18065;55.876;9.830;2023-10-19T07:13:00;22.82;54.34
31443;SHT31;18065;55.876;9.830;2023-10-19T07:15:29;22.86;54.22
31443;SHT31;18065;55.876;9.830;2023-10-19T07:17:58;22.89;54.26
31443;SHT31;18065;55.876;9.830;2023-10-19T07:20:26;22.86;54.35
31443;SHT31;18065;55.876;9.830;2023-10-19T07:22:59;22.89;54.54
31443;SHT31;18065;55.876;9.830;2023-10-19T07:25:33;22.89;54.50
31443;SHT31;18065;55.876;9.830;2023-10-19T07:28:11;22.87;54.42
31443;SHT31;18065;55.876;9.830;2023-10-19T07:30:41;22.95;54.56
31443;SHT31;18065;55.876;9.830;2023-10-19T07:33:11;22.92;54.02
31443;SHT31;18065;55.876;9.830;2023-10-19T07:35:43;22.90;54.57
31443;SHT31;18065;55.876;9.830;2023-10-19T07:38:13;22.95;54.51
31443;SHT31;18065;55.876;9.830;2023-10-19T07:40:42;22.97;54.52
31443;SHT31;18065;55.876;9.830;2023-10-19T07:43:14;23.00;54.71
31443;SHT31;18065;55.876;9.830;2023-10-19T07:45:45;23.03;54.60
31443;SHT31;18065;55.876;9.830;2023-10-19T07:48:14;23.04;54.72
31443;SHT31;18065;55.876;9.830;2023-10-19T07:50:43;23.06;54.75
31443;SHT31;18065;55.876;9.830;2023-10-19T07:53:12;23.09;54.15
31443;SHT31;18065;55.876;9.830;2023-10-19T07:55:42;23.09;54.58
31443;SHT31;18065;55.876;9.830;2023-10-19T07:58:13;23.07;54.33
31443;SHT31;18065;55.876;9.830;2023-10-19T08:00:42;23.10;54.31
31443;SHT31;18065;55.876;9.830;2023-10-19T08:03:12;23.10;54.13
31443;SHT31;18065;55.876;9.830;2023-10-19T08:05:41;23.14;54.24
31443;SHT31;18065;55.876;9.830;2023-10-19T08:08:10;23.13;54.02
31443;SHT31;18065;55.876;9.830;2023-10-19T08:10:39;23.09;53.83
31443;SHT31;18065;55.876;9.830;2023-10-19T08:13:05;23.09;53.61
31443;SHT31;18065;55.876;9.830;2023-10-19T08:15:36;23.07;53.31
31443;SHT31;18065;55.876;9.830;2023-10-19T08:18:06;23.06;53.24
31443;SHT31;18065;55.876;9.830;2023-10-19T08:20:38;23.07;53.14
31443;SHT31;18065;55.876;9.830;2023-10-19T08:23:07;23.07;53.03
31443;SHT31;18065;55.876;9.830;2023-10-19T08:25:36;23.09;53.09
31443;SHT31;18065;55.876;9.830;2023-10-19T08:28:05;23.07;52.93
31443;SHT31;18065;55.876;9.830;2023-10-19T08:30:36;23.07;53.55
31443;SHT31;18065;55.876;9.830;2023-10-19T08:33:06;23.12;53.64
31443;SHT31;18065;55.876;9.830;2023-10-19T08:35:34;23.16;53.57
31443;SHT31;18065;55.876;9.830;2023-10-19T08:38:03;23.14;53.53
31443;SHT31;18065;55.876;9.830;2023-10-19T08:40:37;23.16;53.65
31443;SHT31;18065;55.876;9.830;2023-10-19T08:43:06;23.17;53.22
31443;SHT31;18065;55.876;9.830;2023-10-19T08:45:42;23.22;53.19
31443;SHT31;18065;55.876;9.830;2023-10-19T08:48:10;23.20;53.16
31443;SHT31;18065;55.876;9.830;2023-10-19T08:50:40;23.22;53.34
31443;SHT31;18065;55.876;9.830;2023-10-19T08:53:09;23.22;52.92
31443;SHT31;18065;55.876;9.830;2023-10-19T08:55:39;23.27;52.73
31443;SHT31;18065;55.876;9.830;2023-10-19T08:58:09;23.26;53.09
31443;SHT31;18065;55.876;9.830;2023-10-19T09:00:48;23.31;53.04
31443;SHT31;18065;55.876;9.830;2023-10-19T09:03:17;23.31;53.16
31443;SHT31;18065;55.876;9.830;2023-10-19T09:05:47;23.37;53.22
31443;SHT31;18065;55.876;9.830;2023-10-19T09:08:17;23.33;52.90
31443;SHT31;18065;55.876;9.830;2023-10-19T09:10:48;23.28;52.87
31443;SHT31;18065;55.876;9.830;2023-10-19T09:13:17;23.37;53.40
31443;SHT31;18065;55.876;9.830;2023-10-19T09:15:50;23.34;53.23
31443;SHT31;18065;55.876;9.830;2023-10-19T09:18:22;23.30;52.68
31443;SHT31;18065;55.876;9.830;2023-10-19T09:20:54;23.34;52.65
31443;SHT31;18065;55.876;9.830;2023-10-19T09:23:27;23.33;52.49
31443;SHT31;18065;55.876;9.830;2023-10-19T09:25:58;23.28;52.05
31443;SHT31;18065;55.876;9.830;2023-10-19T09:28:28;23.28;52.00
31443;SHT31;18065;55.876;9.830;2023-10-19T09:31:02;23.24;52.24
31443;SHT31;18065;55.876;9.830;2023-10-19T09:33:35;23.31;52.35
31443;SHT31;18065;55.876;9.830;2023-10-19T09:36:05;23.33;52.49
31443;SHT31;18065;55.876;9.830;2023-10-19T09:38:38;23.28;52.37
31443;SHT31;18065;55.876;9.830;2023-10-19T09:41:11;23.26;52.34
31443;SHT31;18065;55.876;9.830;2023-10-19T09:43:43;23.27;52.38
31443;SHT31;18065;55.876;9.830;2023-10-19T09:46:21;23.23;52.41
31443;SHT31;18065;55.876;9.830;2023-10-19T09:48:50;23.30;52.54
31443;SHT31;18065;55.876;9.830;2023-10-19T09:51:19;23.30;52.51
31443;SHT31;18065;55.876;9.830;2023-10-19T09:53:54;23.27;52.54
31443;SHT31;18065;55.876;9.830;2023-10-19T09:56:32;23.23;52.52
31443;SHT31;18065;55.876;9.830;2023-10-19T09:59:05;23.27;52.47
31443;SHT31;18065;55.876;9.830;2023-10-19T10:04:41;23.17;52.64
31443;SHT31;18065;55.876;9.830;2023-10-19T10:07:11;23.19;52.33
31443;SHT31;18065;55.876;9.830;2023-10-19T10:09:42;23.19;52.04
31443;SHT31;18065;55.876;9.830;2023-10-19T10:12:22;23.19;52.12
31443;SHT31;18065;55.876;9.830;2023-10-19T10:15:01;23.17;51.87
31443;SHT31;18065;55.876;9.830;2023-10-19T10:17:34;23.16;52.14
31443;SHT31;18065;55.876;9.830;2023-10-19T10:20:33;23.14;52.09
31443;SHT31;18065;55.876;9.830;2023-10-19T10:23:19;23.14;52.22
31443;SHT31;18065;55.876;9.830;2023-10-19T10:25:50;23.16;52.29
31443;SHT31;18065;55.876;9.830;2023-10-19T10:28:19;23.17;51.87
31443;SHT31;18065;55.876;9.830;2023-10-19T10:31:07;23.12;51.99
31443;SHT31;18065;55.876;9.830;2023-10-19T10:33:40;23.16;51.73
31443;SHT31;18065;55.876;9.830;2023-10-19T10:36:13;23.16;52.10
31443;SHT31;18065;55.876;9.830;2023-10-19T10:38:43;23.13;52.25
31443;SHT31;18065;55.876;9.830;2023-10-19T10:41:11;23.13;52.09
31443;SHT31;18065;55.876;9.830;2023-10-19T10:43:53;23.10;52.10
31443;SHT31;18065;55.876;9.830;2023-10-19T10:46:23;23.14;51.97
31443;SHT31;18065;55.876;9.830;2023-10-19T10:48:52;23.13;52.26
31443;SHT31;18065;55.876;9.830;2023-10-19T10:51:25;23.10;52.25
31443;SHT31;18065;55.876;9.830;2023-10-19T10:53:54;23.16;52.26
31443;SHT31;18065;55.876;9.830;2023-10-19T10:56:24;23.12;52.36
31443;SHT31;18065;55.876;9.830;2023-10-19T10:58:52;23.13;52.49
31443;SHT31;18065;55.876;9.830;2023-10-19T11:01:28;23.10;52.18
31443;SHT31;18065;55.876;9.830;2023-10-19T11:04:08;23.12;51.85
31443;SHT31;18065;55.876;9.830;2023-10-19T11:06:53;23.09;51.99
31443;SHT31;18065;55.876;9.830;2023-10-19T11:09:24;23.14;52.19
31443;SHT31;18065;55.876;9.830;2023-10-19T11:11:54;23.12;52.41
31443;SHT31;18065;55.876;9.830;2023-10-19T11:14:23;23.12;52.46
31443;SHT31;18065;55.876;9.830;2023-10-19T11:16:53;23.09;52.36
31443;SHT31;18065;55.876;9.830;2023-10-19T11:19:37;23.07;52.38
31443;SHT31;18065;55.876;9.830;2023-10-19T11:22:12;23.10;52.07
31443;SHT31;18065;55.876;9.830;2023-10-19T11:24:40;23.09;52.49
31443;SHT31;18065;55.876;9.830;2023-10-19T11:27:09;23.10;52.40
31443;SHT31;18065;55.876;9.830;2023-10-19T11:29:38;23.10;52.52
31443;SHT31;18065;55.876;9.830;2023-10-19T11:32:07;23.10;52.50
31443;SHT31;18065;55.876;9.830;2023-10-19T11:34:35;23.09;52.46
31443;SHT31;18065;55.876;9.830;2023-10-19T11:37:04;23.10;52.43
31443;SHT31;18065;55.876;9.830;2023-10-19T11:39:36;23.12;52.28
31443;SHT31;18065;55.876;9.830;2023-10-19T11:42:04;23.09;52.38
31443;SHT31;18065;55.876;9.830;2023-10-19T11:44:33;23.06;52.31
31443;SHT31;18065;55.876;9.830;2023-10-19T11:47:02;23.07;52.28
31443;SHT31;18065;55.876;9.830;2023-10-19T11:49:30;23.09;52.21
31443;SHT31;18065;55.876;9.830;2023-10-19T11:52:00;23.06;52.14
31443;SHT31;18065;55.876;9.830;2023-10-19T11:54:29;23.04;52.14
31443;SHT31;18065;55.876;9.830;2023-10-19T11:57:00;23.07;52.38
31443;SHT31;18065;55.876;9.830;2023-10-19T11:59:28;23.06;52.18
31443;SHT31;18065;55.876;9.830;2023-10-19T12:01:57;23.06;52.01
31443;SHT31;18065;55.876;9.830;2023-10-19T12:04:29;23.04;52.10
31443;SHT31;18065;55.876;9.830;2023-10-19T12:06:58;23.06;52.09
31443;SHT31;18065;55.876;9.830;2023-10-19T12:09:26;23.06;51.84
31443;SHT31;18065;55.876;9.830;2023-10-19T12:11:55;23.04;51.88
31443;SHT31;18065;55.876;9.830;2023-10-19T12:14:27;23.03;51.75
31443;SHT31;18065;55.876;9.830;2023-10-19T12:16:56;23.03;51.85
31443;SHT31;18065;55.876;9.830;2023-10-19T12:19:27;23.04;51.90
31443;SHT31;18065;55.876;9.830;2023-10-19T12:21:56;23.00;51.84
31443;SHT31;18065;55.876;9.830;2023-10-19T12:24:24;23.03;51.81
31443;SHT31;18065;55.876;9.830;2023-10-19T12:26:54;23.03;51.91
31443;SHT31;18065;55.876;9.830;2023-10-19T12:29:23;22.99;51.81
31443;SHT31;18065;55.876;9.830;2023-10-19T12:31:54;23.00;51.84
31443;SHT31;18065;55.876;9.830;2023-10-19T12:34:23;23.02;51.65
31443;SHT31;18065;55.876;9.830;2023-10-19T12:36:55;22.97;51.73
31443;SHT31;18065;55.876;9.830;2023-10-19T12:39:24;22.99;51.55
31443;SHT31;18065;55.876;9.830;2023-10-19T12:42:08;23.00;51.85
31443;SHT31;18065;55.876;9.830;2023-10-19T12:44:37;22.99;51.62
31443;SHT31;18065;55.876;9.830;2023-10-19T12:47:10;22.95;51.21
31443;SHT31;18065;55.876;9.830;2023-10-19T12:49:43;22.97;50.93
31443;SHT31;18065;55.876;9.830;2023-10-19T12:52:12;22.99;51.30
31443;SHT31;18065;55.876;9.830;2023-10-19T12:54:41;22.97;51.63
31443;SHT31;18065;55.876;9.830;2023-10-19T12:57:13;22.96;51.63
31443;SHT31;18065;55.876;9.830;2023-10-19T12:59:42;22.96;51.45
31443;SHT31;18065;55.876;9.830;2023-10-19T13:02:13;22.96;51.69
31443;SHT31;18065;55.876;9.830;2023-10-19T13:04:45;22.93;52.05
31443;SHT31;18065;55.876;9.830;2023-10-19T13:07:14;22.99;52.33
31443;SHT31;18065;55.876;9.830;2023-10-19T13:09:43;22.93;52.22
31443;SHT31;18065;55.876;9.830;2023-10-19T13:12:13;22.93;52.03
31443;SHT31;18065;55.876;9.830;2023-10-19T13:14:42;22.95;52.15
31443;SHT31;18065;55.876;9.830;2023-10-19T13:17:13;22.96;52.54
31443;SHT31;18065;55.876;9.830;2023-10-19T13:19:42;22.96;52.94
31443;SHT31;18065;55.876;9.830;2023-10-19T13:22:11;22.92;53.05
31443;SHT31;18065;55.876;9.830;2023-10-19T13:24:40;22.96;52.81
31443;SHT31;18065;55.876;9.830;2023-10-19T13:27:09;22.93;53.03
31443;SHT31;18065;55.876;9.830;2023-10-19T13:29:37;22.93;53.10
31443;SHT31;18065;55.876;9.830;2023-10-19T13:32:07;22.92;52.42
31443;SHT31;18065;55.876;9.830;2023-10-19T13:34:38;22.92;52.86
31443;SHT31;18065;55.876;9.830;2023-10-19T13:37:07;22.90;53.11
31443;SHT31;18065;55.876;9.830;2023-10-19T13:39:36;22.93;53.27
31443;SHT31;18065;55.876;9.830;2023-10-19T13:42:05;22.93;53.37
31443;SHT31;18065;55.876;9.830;2023-10-19T13:44:34;22.95;53.30
31443;SHT31;18065;55.876;9.830;2023-10-19T13:47:03;22.93;53.16
31443;SHT31;18065;55.876;9.830;2023-10-19T13:49:34;22.89;53.33
31443;SHT31;18065;55.876;9.830;2023-10-19T13:52:06;22.93;53.00
31443;SHT31;18065;55.876;9.830;2023-10-19T13:54:34;22.95;53.22
31443;SHT31;18065;55.876;9.830;2023-10-19T13:57:03;22.93;53.55
31443;SHT31;18065;55.876;9.830;2023-10-19T13:59:32;22.93;53.68
31443;SHT31;18065;55.876;9.830;2023-10-19T14:02:00;22.95;53.83
31443;SHT31;18065;55.876;9.830;2023-10-19T14:04:29;22.96;53.96
31443;SHT31;18065;55.876;9.830;2023-10-19T14:06:57;22.97;54.02
31443;SHT31;18065;55.876;9.830;2023-10-19T14:09:29;22.97;53.97
31443;SHT31;18065;55.876;9.830;2023-10-19T14:11:57;22.97;54.01
31443;SHT31;18065;55.876;9.830;2023-10-19T14:14:27;22.99;53.56
31443;SHT31;18065;55.876;9.830;2023-10-19T14:16:56;23.02;53.47
31443;SHT31;18065;55.876;9.830;2023-10-19T14:19:24;23.00;53.39
31443;SHT31;18065;55.876;9.830;2023-10-19T14:21:54;23.00;53.47
31443;SHT31;18065;55.876;9.830;2023-10-19T14:24:22;22.99;53.40
31443;SHT31;18065;55.876;9.830;2023-10-19T14:26:54;23.02;52.82
31443;SHT31;18065;55.876;9.830;2023-10-19T14:29:22;23.02;52.77
31443;SHT31;18065;55.876;9.830;2023-10-19T14:31:51;22.99;52.96
31443;SHT31;18065;55.876;9.830;2023-10-19T14:34:20;23.00;53.19
31443;SHT31;18065;55.876;9.830;2023-10-19T14:36:48;23.00;53.10
31443;SHT31;18065;55.876;9.830;2023-10-19T14:39:17;23.03;52.64
31443;SHT31;18065;55.876;9.830;2023-10-19T14:41:45;23.00;52.95
31443;SHT31;18065;55.876;9.830;2023-10-19T14:44:18;22.95;52.29
31443;SHT31;18065;55.876;9.830;2023-10-19T14:46:47;23.00;52.36
31443;SHT31;18065;55.876;9.830;2023-10-19T14:49:17;22.99;52.32
31443;SHT31;18065;55.876;9.830;2023-10-19T14:51:46;22.97;52.44
31443;SHT31;18065;55.876;9.830;2023-10-19T14:54:15;22.97;52.79
31443;SHT31;18065;55.876;9.830;2023-10-19T14:56:44;22.99;52.52
31443;SHT31;18065;55.876;9.830;2023-10-19T14:59:12;22.99;52.39
31443;SHT31;18065;55.876;9.830;2023-10-19T15:01:44;22.96;52.30
31443;SHT31;18065;55.876;9.830;2023-10-19T15:04:12;22.96;52.14
31443;SHT31;18065;55.876;9.830;2023-10-19T15:06:41;22.96;52.25
31443;SHT31;18065;55.876;9.830;2023-10-19T15:09:10;22.95;52.20
31443;SHT31;18065;55.876;9.830;2023-10-19T15:11:46;22.97;52.25
31443;SHT31;18065;55.876;9.830;2023-10-19T15:14:14;22.92;52.37
31443;SHT31;18065;55.876;9.830;2023-10-19T15:16:48;22.95;52.10
31443;SHT31;18065;55.876;9.830;2023-10-19T15:19:17;22.89;51.74
31443;SHT31;18065;55.876;9.830;2023-10-19T15:21:46;22.90;51.54
31443;SHT31;18065;55.876;9.830;2023-10-19T15:24:15;22.90;51.64
31443;SHT31;18065;55.876;9.830;2023-10-19T15:26:44;22.90;51.76
31443;SHT31;18065;55.876;9.830;2023-10-19T15:29:12;22.90;51.55
31443;SHT31;18065;55.876;9.830;2023-10-19T15:31:41;22.89;51.84
31443;SHT31;18065;55.876;9.830;2023-10-19T15:34:12;22.87;51.89
31443;SHT31;18065;55.876;9.830;2023-10-19T15:36:41;22.90;52.15
31443;SHT31;18065;55.876;9.830;2023-10-19T15:39:10;22.85;52.38
31443;SHT31;18065;55.876;9.830;2023-10-19T15:41:39;22.87;52.73
31443;SHT31;18065;55.876;9.830;2023-10-19T15:44:07;22.85;52.80
31443;SHT31;18065;55.876;9.830;2023-10-19T15:46:36;22.79;52.57
31443;SHT31;18065;55.876;9.830;2023-10-19T15:49:08;22.83;52.81
31443;SHT31;18065;55.876;9.830;2023-10-19T15:51:40;22.85;53.15
31443;SHT31;18065;55.876;9.830;2023-10-19T15:54:09;22.82;53.18
31443;SHT31;18065;55.876;9.830;2023-10-19T15:56:38;22.80;52.84